sensor_id;sensor_type;location;lat;lon;timestamp;pressure;altitude;pressure_sealevel;temperature;humidity
22753;BME280;11543;43.144;24.684;2023-02-04T00:00:48;98624.88;;;5.96;74.84
22753;BME280;11543;43.144;24.684;2023-02-04T00:03:14;98623.00;;;6.07;74.40
22753;BME280;11543;43.144;24.684;2023-02-04T00:05:41;98628.38;;;6.17;73.66
22753;BME280;11543;43.144;24.684;2023-02-04T00:08:06;98619.41;;;6.18;73.92
22753;BME280;11543;43.144;24.684;2023-02-04T00:10:32;98608.75;;;6.18;73.74
22753;BME280;11543;43.144;24.684;2023-02-04T00:12:57;98593.03;;;6.15;73.71
22753;BME280;11543;43.144;24.684;2023-02-04T00:15:23;98589.41;;;6.16;73.57
22753;BME280;11543;43.144;24.684;2023-02-04T00:17:49;98593.22;;;6.23;73.77
22753;BME280;11543;43.144;24.684;2023-02-04T00:20:14;98588.88;;;6.22;73.43
22753;BME280;11543;43.144;24.684;2023-02-04T00:22:40;98576.78;;;6.18;73.23
22753;BME280;11543;43.144;24.684;2023-02-04T00:25:06;98594.09;;;6.33;73.54
22753;BME280;11543;43.144;24.684;2023-02-04T00:27:31;98582.16;;;6.28;73.41
22753;BME280;11543;43.144;24.684;2023-02-04T00:29:57;98576.88;;;6.37;73.04
22753;BME280;11543;43.144;24.684;2023-02-04T00:32:23;98576.31;;;6.44;72.82
22753;BME280;11543;43.144;24.684;2023-02-04T00:34:48;98557.22;;;6.38;73.18
22753;BME280;11543;43.144;24.684;2023-02-04T00:37:13;98564.13;;;6.51;72.56
22753;BME280;11543;43.144;24.684;2023-02-04T00:39:39;98556.16;;;6.51;72.52
22753;BME280;11543;43.144;24.684;2023-02-04T00:42:05;98556.16;;;6.51;72.47
22753;BME280;11543;43.144;24.684;2023-02-04T00:44:31;98545.75;;;6.48;72.61
22753;BME280;11543;43.144;24.684;2023-02-04T00:46:56;98543.53;;;6.53;72.22
22753;BME280;11543;43.144;24.684;2023-02-04T00:49:22;98538.47;;;6.50;72.70
22753;BME280;11543;43.144;24.684;2023-02-04T00:51:47;98526.84;;;6.51;72.80
22753;BME280;11543;43.144;24.684;2023-02-04T00:54:13;98498.34;;;6.42;72.85
22753;BME280;11543;43.144;24.684;2023-02-04T00:56:40;98498.06;;;6.45;73.11
22753;BME280;11543;43.144;24.684;2023-02-04T00:59:06;98488.81;;;6.49;73.22
22753;BME280;11543;43.144;24.684;2023-02-04T01:01:32;98485.44;;;6.47;73.58
22753;BME280;11543;43.144;24.684;2023-02-04T01:03:58;98464.97;;;6.37;73.31
22753;BME280;11543;43.144;24.684;2023-02-04T01:06:23;98479.00;;;6.49;73.46
22753;BME280;11543;43.144;24.684;2023-02-04T01:08:49;98456.53;;;6.32;74.03
22753;BME280;11543;43.144;24.684;2023-02-04T01:11:15;98454.03;;;6.41;74.05
22753;BME280;11543;43.144;24.684;2023-02-04T01:13:40;98443.09;;;6.44;73.89
22753;BME280;11543;43.144;24.684;2023-02-04T01:16:06;98437.75;;;6.34;74.19
22753;BME280;11543;43.144;24.684;2023-02-04T01:18:31;98429.91;;;6.32;74.38
22753;BME280;11543;43.144;24.684;2023-02-04T01:20:57;98430.88;;;6.31;74.39
22753;BME280;11543;43.144;24.684;2023-02-04T01:23:22;98429.47;;;6.27;74.44
22753;BME280;11543;43.144;24.684;2023-02-04T01:25:48;98416.72;;;6.21;74.95
22753;BME280;11543;43.144;24.684;2023-02-04T01:28:13;98412.34;;;6.20;74.44
22753;BME280;11543;43.144;24.684;2023-02-04T01:30:38;98401.97;;;6.17;74.96
22753;BME280;11543;43.144;24.684;2023-02-04T01:33:04;98398.22;;;6.29;75.27
22753;BME280;11543;43.144;24.684;2023-02-04T01:35:29;98393.59;;;6.31;75.30
22753;BME280;11543;43.144;24.684;2023-02-04T01:37:55;98384.75;;;6.31;75.17
22753;BME280;11543;43.144;24.684;2023-02-04T01:40:20;98393.59;;;6.31;74.93
22753;BME280;11543;43.144;24.684;2023-02-04T01:42:45;98389.66;;;6.26;75.25
22753;BME280;11543;43.144;24.684;2023-02-04T01:45:11;98388.69;;;6.27;75.41
22753;BME280;11543;43.144;24.684;2023-02-04T01:47:37;98381.38;;;6.19;75.56
22753;BME280;11543;43.144;24.684;2023-02-04T01:50:03;98383.44;;;6.06;75.71
22753;BME280;11543;43.144;24.684;2023-02-04T01:52:34;98386.94;;;5.97;75.76
22753;BME280;11543;43.144;24.684;2023-02-04T01:55:00;98386.78;;;5.58;77.21
22753;BME280;11543;43.144;24.684;2023-02-04T01:57:26;98382.31;;;5.59;77.08
22753;BME280;11543;43.144;24.684;2023-02-04T01:59:54;98397.97;;;5.52;77.75
22753;BME280;11543;43.144;24.684;2023-02-04T02:05:01;98380.22;;;5.22;79.41
22753;BME280;11543;43.144;24.684;2023-02-04T02:07:26;98370.66;;;5.20;79.59
22753;BME280;11543;43.144;24.684;2023-02-04T02:09:53;98372.09;;;5.24;79.79
22753;BME280;11543;43.144;24.684;2023-02-04T02:12:18;98383.09;;;5.40;79.51
22753;BME280;11543;43.144;24.684;2023-02-04T02:14:44;98370.84;;;5.28;79.55
22753;BME280;11543;43.144;24.684;2023-02-04T02:17:09;98370.16;;;5.26;79.81
22753;BME280;11543;43.144;24.684;2023-02-04T02:19:36;98380.84;;;5.15;80.93
22753;BME280;11543;43.144;24.684;2023-02-04T02:22:07;98384.28;;;5.05;81.44
22753;BME280;11543;43.144;24.684;2023-02-04T02:24:35;98383.41;;;4.95;81.56
22753;BME280;11543;43.144;24.684;2023-02-04T02:27:05;98378.97;;;5.05;81.89
22753;BME280;11543;43.144;24.684;2023-02-04T02:29:32;98375.47;;;5.26;81.80
22753;BME280;11543;43.144;24.684;2023-02-04T02:31:58;98356.16;;;5.24;81.10
22753;BME280;11543;43.144;24.684;2023-02-04T02:34:26;98371.44;;;5.10;81.31
22753;BME280;11543;43.144;24.684;2023-02-04T02:36:53;98365.03;;;5.13;81.70
22753;BME280;11543;43.144;24.684;2023-02-04T02:39:18;98368.66;;;5.12;81.60
22753;BME280;11543;43.144;24.684;2023-02-04T02:41:44;98354.53;;;5.11;81.81
22753;BME280;11543;43.144;24.684;2023-02-04T02:44:11;98340.69;;;5.18;82.28
22753;BME280;11543;43.144;24.684;2023-02-04T02:46:37;98344.06;;;5.20;81.94
22753;BME280;11543;43.144;24.684;2023-02-04T02:49:03;98350.25;;;5.20;81.90
22753;BME280;11543;43.144;24.684;2023-02-04T02:51:28;98341.75;;;5.05;81.58
22753;BME280;11543;43.144;24.684;2023-02-04T02:53:55;98356.91;;;5.15;81.53
22753;BME280;11543;43.144;24.684;2023-02-04T02:56:21;98355.50;;;5.10;82.42
22753;BME280;11543;43.144;24.684;2023-02-04T02:58:47;98359.44;;;5.16;82.00
22753;BME280;11543;43.144;24.684;2023-02-04T03:01:12;98365.34;;;5.20;82.08
22753;BME280;11543;43.144;24.684;2023-02-04T03:03:42;98361.03;;;4.98;83.12
22753;BME280;11543;43.144;24.684;2023-02-04T03:06:12;98364.28;;;5.01;83.84
22753;BME280;11543;43.144;24.684;2023-02-04T03:08:39;98359.94;;;5.00;84.62
22753;BME280;11543;43.144;24.684;2023-02-04T03:11:05;98349.63;;;4.86;85.64
22753;BME280;11543;43.144;24.684;2023-02-04T03:13:31;98342.81;;;4.93;85.57
22753;BME280;11543;43.144;24.684;2023-02-04T03:15:58;98348.97;;;4.94;85.60
22753;BME280;11543;43.144;24.684;2023-02-04T03:18:24;98344.19;;;4.88;86.05
22753;BME280;11543;43.144;24.684;2023-02-04T03:20:50;98333.88;;;4.94;86.77
22753;BME280;11543;43.144;24.684;2023-02-04T03:23:15;98316.25;;;4.93;86.28
22753;BME280;11543;43.144;24.684;2023-02-04T03:25:42;98318.81;;;5.04;86.12
22753;BME280;11543;43.144;24.684;2023-02-04T03:28:08;98314.91;;;5.08;85.69
22753;BME280;11543;43.144;24.684;2023-02-04T03:30:33;98318.00;;;5.13;85.38
22753;BME280;11543;43.144;24.684;2023-02-04T03:32:59;98294.34;;;5.10;85.38
22753;BME280;11543;43.144;24.684;2023-02-04T03:35:24;98303.84;;;5.03;85.00
22753;BME280;11543;43.144;24.684;2023-02-04T03:37:50;98295.31;;;5.09;84.65
22753;BME280;11543;43.144;24.684;2023-02-04T03:40:15;98292.25;;;5.14;84.34
22753;BME280;11543;43.144;24.684;2023-02-04T03:42:41;98288.88;;;5.12;84.61
22753;BME280;11543;43.144;24.684;2023-02-04T03:45:07;98272.47;;;4.97;84.47
22753;BME280;11543;43.144;24.684;2023-02-04T03:47:32;98301.34;;;5.11;84.71
22753;BME280;11543;43.144;24.684;2023-02-04T03:49:58;98294.16;;;5.02;84.76
22753;BME280;11543;43.144;24.684;2023-02-04T03:52:23;98312.69;;;5.13;84.98
22753;BME280;11543;43.144;24.684;2023-02-04T03:54:48;98304.91;;;5.22;84.92
22753;BME280;11543;43.144;24.684;2023-02-04T03:57:14;98304.38;;;5.28;84.96
22753;BME280;11543;43.144;24.684;2023-02-04T03:59:42;98314.44;;;5.24;85.25
22753;BME280;11543;43.144;24.684;2023-02-04T04:02:08;98290.66;;;5.32;85.28
22753;BME280;11543;43.144;24.684;2023-02-04T04:04:33;98281.72;;;5.33;84.99
22753;BME280;11543;43.144;24.684;2023-02-04T04:06:59;98282.56;;;5.34;85.24
22753;BME280;11543;43.144;24.684;2023-02-04T04:09:24;98269.09;;;5.26;85.20
22753;BME280;11543;43.144;24.684;2023-02-04T04:11:49;98272.53;;;5.17;86.05
22753;BME280;11543;43.144;24.684;2023-02-04T04:14:15;98261.38;;;5.23;85.73
22753;BME280;11543;43.144;24.684;2023-02-04T04:16:40;98265.72;;;5.24;85.64
22753;BME280;11543;43.144;24.684;2023-02-04T04:19:06;98257.75;;;5.24;85.92
22753;BME280;11543;43.144;24.684;2023-02-04T04:21:31;98249.06;;;5.22;86.16
22753;BME280;11543;43.144;24.684;2023-02-04T04:23:57;98254.91;;;5.16;86.09
22753;BME280;11543;43.144;24.684;2023-02-04T04:26:22;98254.53;;;5.20;86.06
22753;BME280;11543;43.144;24.684;2023-02-04T04:28:47;98257.03;;;5.22;86.24
22753;BME280;11543;43.144;24.684;2023-02-04T04:31:13;98261.28;;;5.34;86.30
22753;BME280;11543;43.144;24.684;2023-02-04T04:33:38;98249.66;;;5.35;86.49
22753;BME280;11543;43.144;24.684;2023-02-04T04:36:05;98249.53;;;5.46;85.98
22753;BME280;11543;43.144;24.684;2023-02-04T04:38:30;98259.75;;;5.51;85.90
22753;BME280;11543;43.144;24.684;2023-02-04T04:40:56;98249.53;;;5.46;85.65
22753;BME280;11543;43.144;24.684;2023-02-04T04:43:21;98258.50;;;5.45;86.32
22753;BME280;11543;43.144;24.684;2023-02-04T04:45:47;98258.50;;;5.45;86.62
22753;BME280;11543;43.144;24.684;2023-02-04T04:48:12;98259.31;;;5.36;86.80
22753;BME280;11543;43.144;24.684;2023-02-04T04:50:38;98274.97;;;5.29;86.53
22753;BME280;11543;43.144;24.684;2023-02-04T04:53:03;98270.16;;;5.13;87.51
22753;BME280;11543;43.144;24.684;2023-02-04T04:55:29;98289.47;;;5.16;88.13
22753;BME280;11543;43.144;24.684;2023-02-04T04:57:54;98277.34;;;4.92;88.86
22753;BME280;11543;43.144;24.684;2023-02-04T05:00:20;98305.59;;;4.93;89.02
22753;BME280;11543;43.144;24.684;2023-02-04T05:02:46;98297.53;;;4.74;89.76
22753;BME280;11543;43.144;24.684;2023-02-04T05:05:12;98314.72;;;4.70;90.48
22753;BME280;11543;43.144;24.684;2023-02-04T05:07:38;98316.47;;;4.60;90.79
22753;BME280;11543;43.144;24.684;2023-02-04T05:10:04;98324.13;;;4.53;91.14
22753;BME280;11543;43.144;24.684;2023-02-04T05:12:30;98325.47;;;4.68;90.83
22753;BME280;11543;43.144;24.684;2023-02-04T05:14:56;98295.94;;;4.62;90.94
22753;BME280;11543;43.144;24.684;2023-02-04T05:17:21;98304.88;;;4.61;90.72
22753;BME280;11543;43.144;24.684;2023-02-04T05:19:46;98293.34;;;4.51;90.82
22753;BME280;11543;43.144;24.684;2023-02-04T05:22:12;98307.34;;;4.53;91.05
22753;BME280;11543;43.144;24.684;2023-02-04T05:24:37;98304.69;;;4.53;90.40
22753;BME280;11543;43.144;24.684;2023-02-04T05:27:03;98311.25;;;4.48;91.18
22753;BME280;11543;43.144;24.684;2023-02-04T05:29:28;98316.28;;;4.52;90.95
22753;BME280;11543;43.144;24.684;2023-02-04T05:31:53;98312.97;;;4.59;90.71
22753;BME280;11543;43.144;24.684;2023-02-04T05:34:19;98317.91;;;4.64;90.61
22753;BME280;11543;43.144;24.684;2023-02-04T05:36:44;98324.97;;;4.54;89.93
22753;BME280;11543;43.144;24.684;2023-02-04T05:39:10;98297.56;;;4.53;90.12
22753;BME280;11543;43.144;24.684;2023-02-04T05:41:35;98316.66;;;4.68;89.98
22753;BME280;11543;43.144;24.684;2023-02-04T05:44:01;98323.03;;;4.56;89.66
22753;BME280;11543;43.144;24.684;2023-02-04T05:46:26;98319.91;;;4.51;90.10
22753;BME280;11543;43.144;24.684;2023-02-04T05:48:52;98324.91;;;4.65;89.50
22753;BME280;11543;43.144;24.684;2023-02-04T05:51:17;98314.97;;;4.67;89.01
22753;BME280;11543;43.144;24.684;2023-02-04T05:53:43;98315.69;;;4.69;89.42
22753;BME280;11543;43.144;24.684;2023-02-04T05:56:08;98310.91;;;4.63;89.04
22753;BME280;11543;43.144;24.684;2023-02-04T05:58:35;98315.06;;;4.56;89.29
22753;BME280;11543;43.144;24.684;2023-02-04T06:01:01;98302.03;;;4.53;89.24
22753;BME280;11543;43.144;24.684;2023-02-04T06:03:28;98313.63;;;4.52;89.73
22753;BME280;11543;43.144;24.684;2023-02-04T06:05:55;98315.78;;;4.58;89.98
22753;BME280;11543;43.144;24.684;2023-02-04T06:08:20;98302.94;;;4.63;90.38
22753;BME280;11543;43.144;24.684;2023-02-04T06:10:46;98313.94;;;4.79;89.26
22753;BME280;11543;43.144;24.684;2023-02-04T06:13:11;98297.53;;;4.74;89.11
22753;BME280;11543;43.144;24.684;2023-02-04T06:15:36;98286.50;;;4.78;88.79
22753;BME280;11543;43.144;24.684;2023-02-04T06:18:02;98289.84;;;4.71;89.07
22753;BME280;11543;43.144;24.684;2023-02-04T06:20:27;98301.00;;;4.65;89.07
22753;BME280;11543;43.144;24.684;2023-02-04T06:22:53;98300.47;;;4.71;89.22
22753;BME280;11543;43.144;24.684;2023-02-04T06:25:19;98300.47;;;4.71;89.50
22753;BME280;11543;43.144;24.684;2023-02-04T06:27:45;98307.78;;;4.78;89.42
22753;BME280;11543;43.144;24.684;2023-02-04T06:30:10;98307.38;;;4.83;89.27
22753;BME280;11543;43.144;24.684;2023-02-04T06:32:36;98314.88;;;4.99;89.23
22753;BME280;11543;43.144;24.684;2023-02-04T06:35:01;98305.34;;;4.96;88.78
22753;BME280;11543;43.144;24.684;2023-02-04T06:37:27;98301.72;;;4.97;88.80
22753;BME280;11543;43.144;24.684;2023-02-04T06:39:52;98295.25;;;4.90;88.51
22753;BME280;11543;43.144;24.684;2023-02-04T06:42:19;98312.25;;;5.08;87.77
22753;BME280;11543;43.144;24.684;2023-02-04T06:44:45;98317.97;;;5.04;88.19
22753;BME280;11543;43.144;24.684;2023-02-04T06:47:10;98323.31;;;5.13;88.24
22753;BME280;11543;43.144;24.684;2023-02-04T06:49:36;98316.94;;;4.95;88.58
22753;BME280;11543;43.144;24.684;2023-02-04T06:52:01;98325.81;;;5.05;89.05
22753;BME280;11543;43.144;24.684;2023-02-04T06:54:27;98320.44;;;4.96;89.53
22753;BME280;11543;43.144;24.684;2023-02-04T06:56:52;98316.78;;;4.87;89.98
22753;BME280;11543;43.144;24.684;2023-02-04T06:59:17;98308.25;;;4.93;89.65
22753;BME280;11543;43.144;24.684;2023-02-04T07:01:43;98323.94;;;4.96;90.32
22753;BME280;11543;43.144;24.684;2023-02-04T07:04:08;98318.81;;;5.04;89.90
22753;BME280;11543;43.144;24.684;2023-02-04T07:06:34;98328.63;;;5.13;89.63
22753;BME280;11543;43.144;24.684;2023-02-04T07:08:59;98311.75;;;4.94;90.44
22753;BME280;11543;43.144;24.684;2023-02-04T07:11:24;98325.50;;;4.99;90.04
22753;BME280;11543;43.144;24.684;2023-02-04T07:13:50;98323.50;;;4.91;90.26
22753;BME280;11543;43.144;24.684;2023-02-04T07:16:15;98321.03;;;4.99;90.23
22753;BME280;11543;43.144;24.684;2023-02-04T07:18:41;98323.75;;;4.88;90.66
22753;BME280;11543;43.144;24.684;2023-02-04T07:21:06;98321.38;;;4.85;91.13
22753;BME280;11543;43.144;24.684;2023-02-04T07:23:31;98311.41;;;4.77;90.77
22753;BME280;11543;43.144;24.684;2023-02-04T07:25:57;98325.09;;;4.73;91.27
22753;BME280;11543;43.144;24.684;2023-02-04T07:28:23;98328.44;;;4.75;91.78
22753;BME280;11543;43.144;24.684;2023-02-04T07:30:49;98311.09;;;4.71;91.66
22753;BME280;11543;43.144;24.684;2023-02-04T07:33:14;98314.47;;;4.73;92.13
22753;BME280;11543;43.144;24.684;2023-02-04T07:35:40;98310.81;;;4.74;92.65
22753;BME280;11543;43.144;24.684;2023-02-04T07:38:05;98313.78;;;4.80;91.95
22753;BME280;11543;43.144;24.684;2023-02-04T07:40:31;98305.28;;;4.87;92.03
22753;BME280;11543;43.144;24.684;2023-02-04T07:42:57;98311.19;;;4.90;91.74
22753;BME280;11543;43.144;24.684;2023-02-04T07:45:22;98309.50;;;4.89;90.59
22753;BME280;11543;43.144;24.684;2023-02-04T07:47:48;98303.94;;;4.92;90.61
22753;BME280;11543;43.144;24.684;2023-02-04T07:50:13;98300.47;;;5.01;90.22
22753;BME280;11543;43.144;24.684;2023-02-04T07:52:40;98303.13;;;5.01;90.10
22753;BME280;11543;43.144;24.684;2023-02-04T07:55:06;98299.41;;;5.13;90.22
22753;BME280;11543;43.144;24.684;2023-02-04T07:57:32;98292.41;;;5.12;89.73
22753;BME280;11543;43.144;24.684;2023-02-04T07:59:57;98282.72;;;5.11;89.52
22753;BME280;11543;43.144;24.684;2023-02-04T08:02:23;98282.19;;;5.18;89.83
22753;BME280;11543;43.144;24.684;2023-02-04T08:04:48;98286.81;;;5.16;89.58
22753;BME280;11543;43.144;24.684;2023-02-04T08:07:14;98280.25;;;5.20;89.70
22753;BME280;11543;43.144;24.684;2023-02-04T08:09:39;98279.16;;;5.22;88.94
22753;BME280;11543;43.144;24.684;2023-02-04T08:12:05;98279.72;;;5.26;88.94
22753;BME280;11543;43.144;24.684;2023-02-04T08:14:30;98281.41;;;5.27;89.18
22753;BME280;11543;43.144;24.684;2023-02-04T08:16:56;98279.22;;;5.41;89.15
22753;BME280;11543;43.144;24.684;2023-02-04T08:19:21;98284.81;;;5.48;88.95
22753;BME280;11543;43.144;24.684;2023-02-04T08:21:47;98282.47;;;5.64;88.96
22753;BME280;11543;43.144;24.684;2023-02-04T08:24:14;98271.13;;;5.62;88.33
22753;BME280;11543;43.144;24.684;2023-02-04T08:26:40;98289.75;;;5.72;87.19
22753;BME280;11543;43.144;24.684;2023-02-04T08:29:06;98277.31;;;5.82;87.62
22753;BME280;11543;43.144;24.684;2023-02-04T08:31:32;98281.78;;;5.82;87.82
22753;BME280;11543;43.144;24.684;2023-02-04T08:33:57;98296.50;;;5.86;87.34
22753;BME280;11543;43.144;24.684;2023-02-04T08:36:23;98296.78;;;5.83;87.22
22753;BME280;11543;43.144;24.684;2023-02-04T08:38:52;98290.34;;;5.85;87.08
22753;BME280;11543;43.144;24.684;2023-02-04T08:41:17;98276.34;;;5.93;85.93
22753;BME280;11543;43.144;24.684;2023-02-04T08:43:43;98298.81;;;6.10;86.91
22753;BME280;11543;43.144;24.684;2023-02-04T08:46:08;98298.13;;;6.17;86.28
22753;BME280;11543;43.144;24.684;2023-02-04T08:48:33;98303.00;;;6.22;86.12
22753;BME280;11543;43.144;24.684;2023-02-04T08:50:59;98291.38;;;6.13;85.83
22753;BME280;11543;43.144;24.684;2023-02-04T08:53:24;98304.28;;;6.08;84.73
22753;BME280;11543;43.144;24.684;2023-02-04T08:55:50;98300.78;;;6.07;84.67
22753;BME280;11543;43.144;24.684;2023-02-04T08:58:15;98294.31;;;6.10;85.02
22753;BME280;11543;43.144;24.684;2023-02-04T09:00:40;98287.31;;;6.09;85.13
22753;BME280;11543;43.144;24.684;2023-02-04T09:03:06;98304.84;;;6.12;84.44
22753;BME280;11543;43.144;24.684;2023-02-04T09:05:32;98302.31;;;6.10;84.58
22753;BME280;11543;43.144;24.684;2023-02-04T09:07:57;98304.25;;;5.98;83.80
22753;BME280;11543;43.144;24.684;2023-02-04T09:10:22;98289.66;;;5.93;83.33
22753;BME280;11543;43.144;24.684;2023-02-04T09:12:48;98295.00;;;6.02;83.56
22753;BME280;11543;43.144;24.684;2023-02-04T09:15:13;98300.78;;;6.07;83.08
22753;BME280;11543;43.144;24.684;2023-02-04T09:17:39;98301.19;;;6.13;83.37
22753;BME280;11543;43.144;24.684;2023-02-04T09:20:09;98293.06;;;6.14;83.60
22753;BME280;11543;43.144;24.684;2023-02-04T09:22:34;98290.81;;;6.19;82.58
22753;BME280;11543;43.144;24.684;2023-02-04T09:25:02;98280.16;;;6.19;82.93
22753;BME280;11543;43.144;24.684;2023-02-04T09:27:28;98277.91;;;6.24;82.66
22753;BME280;11543;43.144;24.684;2023-02-04T09:29:54;98280.97;;;6.39;82.57
22753;BME280;11543;43.144;24.684;2023-02-04T09:32:20;98284.63;;;6.48;81.94
22753;BME280;11543;43.144;24.684;2023-02-04T09:34:46;98281.38;;;6.54;80.72
22753;BME280;11543;43.144;24.684;2023-02-04T09:37:11;98267.75;;;6.57;80.83
22753;BME280;11543;43.144;24.684;2023-02-04T09:39:36;98267.31;;;6.71;79.35
22753;BME280;11543;43.144;24.684;2023-02-04T09:42:02;98266.00;;;6.94;80.29
22753;BME280;11543;43.144;24.684;2023-02-04T09:44:28;98262.59;;;7.02;78.70
22753;BME280;11543;43.144;24.684;2023-02-04T09:46:56;98274.09;;;7.02;78.81
22753;BME280;11543;43.144;24.684;2023-02-04T09:49:23;98253.84;;;7.10;78.78
22753;BME280;11543;43.144;24.684;2023-02-04T09:51:50;98239.22;;;7.14;77.87
22753;BME280;11543;43.144;24.684;2023-02-04T09:54:17;98245.06;;;7.27;75.42
22753;BME280;11543;43.144;24.684;2023-02-04T09:56:44;98249.50;;;7.36;74.15
22753;BME280;11543;43.144;24.684;2023-02-04T09:59:14;98243.78;;;7.49;74.98
22753;BME280;11543;43.144;24.684;2023-02-04T10:01:40;98239.44;;;7.48;74.47
22753;BME280;11543;43.144;24.684;2023-02-04T10:04:12;98230.53;;;7.57;74.79
22753;BME280;11543;43.144;24.684;2023-02-04T10:06:39;98229.47;;;7.67;74.71
22753;BME280;11543;43.144;24.684;2023-02-04T10:09:05;98233.22;;;7.75;74.65
22753;BME280;11543;43.144;24.684;2023-02-04T10:11:34;98233.72;;;7.88;74.40
22753;BME280;11543;43.144;24.684;2023-02-04T10:14:00;98226.06;;;7.93;73.79
22753;BME280;11543;43.144;24.684;2023-02-04T10:16:31;98236.91;;;8.09;74.45
22753;BME280;11543;43.144;24.684;2023-02-04T10:19:05;98238.69;;;8.26;74.70
22753;BME280;11543;43.144;24.684;2023-02-04T10:21:33;98228.78;;;8.37;73.78
22753;BME280;11543;43.144;24.684;2023-02-04T10:24:03;98232.56;;;8.52;71.50
22753;BME280;11543;43.144;24.684;2023-02-04T10:26:31;98235.38;;;8.68;70.96
22753;BME280;11543;43.144;24.684;2023-02-04T10:29:00;98221.84;;;8.70;69.05
22753;BME280;11543;43.144;24.684;2023-02-04T10:31:28;98231.75;;;8.77;70.28
22753;BME280;11543;43.144;24.684;2023-02-04T10:34:16;98236.72;;;8.72;67.83
22753;BME280;11543;43.144;24.684;2023-02-04T10:36:44;98240.75;;;8.76;68.29
22753;BME280;11543;43.144;24.684;2023-02-04T10:39:20;98233.09;;;8.81;67.00
22753;BME280;11543;43.144;24.684;2023-02-04T10:41:56;98231.31;;;8.64;66.99
22753;BME280;11543;43.144;24.684;2023-02-04T10:44:33;98225.09;;;8.81;67.64
22753;BME280;11543;43.144;24.684;2023-02-04T10:49:57;98216.25;;;8.63;66.78
22753;BME280;11543;43.144;24.684;2023-02-04T10:52:32;98198.78;;;8.69;67.94
22753;BME280;11543;43.144;24.684;2023-02-04T10:54:58;98204.66;;;8.72;66.68
22753;BME280;11543;43.144;24.684;2023-02-04T10:57:28;98203.41;;;8.67;67.15
22753;BME280;11543;43.144;24.684;2023-02-04T10:59:57;98194.25;;;8.69;68.44
22753;BME280;11543;43.144;24.684;2023-02-04T11:04:54;98206.03;;;8.84;66.97
22753;BME280;11543;43.144;24.684;2023-02-04T11:07:20;98183.94;;;8.74;66.35
22753;BME280;11543;43.144;24.684;2023-02-04T11:09:47;98189.19;;;8.92;67.03
22753;BME280;11543;43.144;24.684;2023-02-04T11:15:42;98184.44;;;8.78;64.90
22753;BME280;11543;43.144;24.684;2023-02-04T11:18:25;98196.03;;;8.86;65.32
22753;BME280;11543;43.144;24.684;2023-02-04T11:20:54;98190.91;;;9.01;65.58
22753;BME280;11543;43.144;24.684;2023-02-04T11:34:00;98198.63;;;9.12;65.56
22753;BME280;11543;43.144;24.684;2023-02-04T11:36:26;98184.78;;;9.17;66.07
22753;BME280;11543;43.144;24.684;2023-02-04T11:38:52;98181.78;;;9.28;64.73
22753;BME280;11543;43.144;24.684;2023-02-04T11:41:26;98178.13;;;9.29;65.95
22753;BME280;11543;43.144;24.684;2023-02-04T11:43:54;98181.78;;;9.28;64.94
22753;BME280;11543;43.144;24.684;2023-02-04T11:46:22;98187.50;;;9.33;64.58
22753;BME280;11543;43.144;24.684;2023-02-04T11:48:54;98178.16;;;9.45;63.12
22753;BME280;11543;43.144;24.684;2023-02-04T11:51:25;98183.13;;;9.32;63.57
22753;BME280;11543;43.144;24.684;2023-02-04T11:53:52;98174.47;;;9.46;63.50
22753;BME280;11543;43.144;24.684;2023-02-04T11:56:19;98176.31;;;9.46;62.70
22753;BME280;11543;43.144;24.684;2023-02-04T11:58:46;98177.50;;;9.51;63.87
22753;BME280;11543;43.144;24.684;2023-02-04T12:01:23;98172.78;;;9.37;62.67
22753;BME280;11543;43.144;24.684;2023-02-04T12:03:55;98187.50;;;9.41;62.66
22753;BME280;11543;43.144;24.684;2023-02-04T12:06:23;98173.13;;;9.42;63.76
22753;BME280;11543;43.144;24.684;2023-02-04T12:08:49;98178.13;;;9.29;62.53
22753;BME280;11543;43.144;24.684;2023-02-04T12:11:26;98177.41;;;9.19;62.20
22753;BME280;11543;43.144;24.684;2023-02-04T12:13:56;98179.75;;;9.14;62.23
22753;BME280;11543;43.144;24.684;2023-02-04T12:16:22;98169.00;;;9.06;62.92
22753;BME280;11543;43.144;24.684;2023-02-04T12:18:48;98171.50;;;8.99;63.39
22753;BME280;11543;43.144;24.684;2023-02-04T12:21:14;98173.81;;;8.94;63.58
22753;BME280;11543;43.144;24.684;2023-02-04T12:23:40;98174.97;;;8.91;63.91
22753;BME280;11543;43.144;24.684;2023-02-04T12:26:09;98179.97;;;8.86;63.97
22753;BME280;11543;43.144;24.684;2023-02-04T12:28:35;98165.38;;;8.73;64.59
22753;BME280;11543;43.144;24.684;2023-02-04T12:31:00;98162.34;;;8.68;64.55
22753;BME280;11543;43.144;24.684;2023-02-04T12:33:26;98172.38;;;8.74;63.87
22753;BME280;11543;43.144;24.684;2023-02-04T12:35:51;98165.13;;;8.66;64.28
22753;BME280;11543;43.144;24.684;2023-02-04T12:38:18;98176.06;;;8.73;64.68
22753;BME280;11543;43.144;24.684;2023-02-04T12:40:43;98175.94;;;8.82;64.98
22753;BME280;11543;43.144;24.684;2023-02-04T12:43:09;98176.97;;;8.89;64.27
22753;BME280;11543;43.144;24.684;2023-02-04T12:45:35;98177.50;;;8.93;64.67
22753;BME280;11543;43.144;24.684;2023-02-04T12:48:00;98174.97;;;8.91;64.39
22753;BME280;11543;43.144;24.684;2023-02-04T12:50:26;98179.84;;;8.96;64.16
22753;BME280;11543;43.144;24.684;2023-02-04T12:52:54;98190.06;;;9.01;64.13
22753;BME280;11543;43.144;24.684;2023-02-04T12:55:20;98195.09;;;9.04;63.88
22753;BME280;11543;43.144;24.684;2023-02-04T12:57:46;98183.56;;;9.11;63.73
22753;BME280;11543;43.144;24.684;2023-02-04T13:00:14;98183.38;;;9.05;64.01
22753;BME280;11543;43.144;24.684;2023-02-04T13:02:39;98189.75;;;9.04;64.25
22753;BME280;11543;43.144;24.684;2023-02-04T13:05:06;98201.78;;;9.08;65.07
22753;BME280;11543;43.144;24.684;2023-02-04T13:07:32;98195.41;;;9.01;64.49
22753;BME280;11543;43.144;24.684;2023-02-04T13:09:58;98208.34;;;8.79;64.12
22753;BME280;11543;43.144;24.684;2023-02-04T13:12:24;98212.16;;;8.69;65.40
22753;BME280;11543;43.144;24.684;2023-02-04T13:14:49;98217.25;;;8.62;66.15
22753;BME280;11543;43.144;24.684;2023-02-04T13:17:15;98201.63;;;8.49;66.18